Nabulus, West Bank
Current Conditions -  °F | °C
As of 1:50 AM on Saturday 20 Dec 2014 (Local Time) from LLBG Reporting Station
Broken Clouds Broken Clouds  
Wind Chill: 59°   Ceiling: 5000
Heat Index: 59°   Visibility: 4mi
Dew Point: 54°   Wind: 2mph
Humidity: 82%   Direction: NA
Pressure: 30.09"   Gusts: NA
Location:  32.23°N, 35.27°E
Report Text: LLBG 192250Z VRB02KT 6000 SCT030 BKN050 15/12 Q1019 TEMPO 3000BR
Loading
Personal Weather Stations






























Interactive Weather Map New forecast layout! Learn more

10-Day Weather Forecast

Advertisements
Track Severe Weather on mobile